Terminal Aerodrome Forecast
Issued by NWS Cheyenne, WY

Home | Current Version | Previous Version | Text Only | Print | Product List | Glossary On
Versions: 1 2 3 4 5 6 7 8 9 10 11 12 13 14 15 16 17 18 19 20 21 22 23 24 25 26 27 28 29 30 31 32 33 34 35 36 37 38 39 40 41 42 43 44 45 46 47
000
FTUS45 KCYS 272340
TAFCYS
TAF
KCYS 272340Z 2800/2824 35014G22KT P6SM VCSH BKN050
     FM280200 30009KT P6SM SKC
     FM281700 34012KT P6SM BKN070
     FM282000 34013G22KT P6SM VCSH SCT050 BKN070=

USA.gov is the U.S. government's official web portal to all federal, state and local government web resources and services.